Alpine, CA (91901)

8:01 AM PST on March 01, 2015 (GMT -0800)
Hale Dr | Change Station
CLOSE
Current Station
Personal Weather Station
Location: Alpine, CA
Elevation: 2100 ft
Nearby Weather Stations

Elev 2100 ft 32.85 °N, 116.76 °W | Updated 5 minutes ago

Rain
Rain
46.2 °F
Feels Like 46 °F
N
0.0
Wind Variable Wind from NNW

Today
High -- | Low -- °F
--% Chance of Precip.
Yesterday
High -- | Low -- °F
Precip. -- in
6:15 AM 5:44 PM
Waxing Gibbous, 86% visible
Pressure 29.97 in
Visibility 4.0 miles
Clouds Scattered Clouds 2200 ft
Overcast 3400 ft
Windchill 46 °F
Dew Point 45 °F
Humidity 95%
Rainfall 0.40 in
Snow Depth Not available.
UV 0 out of 12
Pollen .80 out of 12
Air Quality Not available.
Flu Activity Not available.
METAR KSEE 011547Z 00000KT 4SM SCT022 OVC034 11/11 A2997

More Conditions Fewer Conditions

Pressure 29.97 in
Visibility 4.0 miles
Clouds Scattered Clouds 2200 ft
Overcast 3400 ft
Windchill 46 °F
Dew Point 45 °F
Humidity 95%
Rainfall 0.40 in
Snow Depth Not available.
UV 0 out of 12
Pollen .80 out of 12
Air Quality Not available.
Flu Activity Not available.
METAR KSEE 011547Z 00000KT 4SM SCT022 OVC034 11/11 A2997

More Conditions Fewer Conditions

10-Day Weather Forecast

Almanac

Astronomy

Mar. 01, 2015 Rise Set
Actual Time
Civil Twilight
Nautical Twilight
Astronomical Twilight
Moon
Length of Visible Light
Length of Day
Tomorrow will be .
, % of the Moon is Illuminated

Today's Extremes

State Highs State Lows

Community

WunderPhotos

Upload Photos

1,801,440 photos uploaded!

WunderBlogs® & News

Nearby

Air Quality

  Air Quality AQ Index Pollutant
Not available.

Snow Depth

Station Depth Elevation

Earthquake Activity

City Distance Mag. Time & Date
Minimum magnitude displayed is 2.5.

Coastal Water Temperatures

Place Temperature

Nearby Weather Stations